MAS1336 WMKK-WMKN
Flight info
| Callsign | MAS1336 |
|---|---|
| Flight time | 0h 39m |
| Altitude | 23000 |
| Route | PIBOS1D PIBOS R208 GUNBO GUNBO1E |
| Aircraft | A339/H-SADE1E2E3GHIJ3J5M1P2RWXY/LB2D1 |
Departure
| Time | 2026-04-30 21:56 |
|---|---|
| Airport | Kuala Lumpur International Airport (WMKK) |
Arrival
| Time | 2026-04-30 22:36 |
|---|---|
| Airport | Sultan Mahmud Airport (WMKN) |
| Time | Latitude | Longitude | Altitude | Speed | Heading |
|---|---|---|---|---|---|
| 2026-04-30 21:33 | 2.75427 | 101.70906 | 83 ft | 0 kts | 326° |
| 2026-04-30 21:45 | 2.75425 | 101.70908 | 83 ft | 2 kts | 326° |
| 2026-04-30 21:45 | 2.75412 | 101.70916 | 83 ft | 2 kts | 326° |
| 2026-04-30 21:45 | 2.75399 | 101.70924 | 83 ft | 2 kts | 326° |
| 2026-04-30 21:46 | 2.75387 | 101.70933 | 83 ft | 2 kts | 339° |
| 2026-04-30 21:46 | 2.75372 | 101.70935 | 83 ft | 2 kts | 11° |
| 2026-04-30 21:46 | 2.75358 | 101.70930 | 83 ft | 2 kts | 37° |
| 2026-04-30 21:46 | 2.75351 | 101.70923 | 83 ft | 0 kts | 56° |
| 2026-04-30 21:47 | 2.75348 | 101.70918 | 83 ft | 0 kts | 56° |
| 2026-04-30 21:50 | 2.75349 | 101.70921 | 83 ft | 1 kts | 56° |
| 2026-04-30 21:50 | 2.75365 | 101.70943 | 83 ft | 6 kts | 55° |
| 2026-04-30 21:50 | 2.75388 | 101.70976 | 83 ft | 7 kts | 55° |
| 2026-04-30 21:50 | 2.75425 | 101.71030 | 83 ft | 11 kts | 56° |
| 2026-04-30 21:51 | 2.75476 | 101.71106 | 83 ft | 13 kts | 56° |
| 2026-04-30 21:51 | 2.75509 | 101.71177 | 83 ft | 10 kts | 96° |
| 2026-04-30 21:51 | 2.75456 | 101.71236 | 83 ft | 12 kts | 146° |
| 2026-04-30 21:51 | 2.75381 | 101.71286 | 83 ft | 13 kts | 146° |
| 2026-04-30 21:52 | 2.75331 | 101.71353 | 83 ft | 12 kts | 86° |
| 2026-04-30 21:52 | 2.75375 | 101.71434 | 83 ft | 13 kts | 56° |
| 2026-04-30 21:52 | 2.75366 | 101.71506 | 83 ft | 12 kts | 134° |
| 2026-04-30 21:52 | 2.75291 | 101.71559 | 83 ft | 13 kts | 147° |
| 2026-04-30 21:53 | 2.75209 | 101.71614 | 83 ft | 14 kts | 146° |
| 2026-04-30 21:53 | 2.75122 | 101.71672 | 83 ft | 15 kts | 146° |
| 2026-04-30 21:53 | 2.75032 | 101.71733 | 83 ft | 16 kts | 146° |
| 2026-04-30 21:53 | 2.74936 | 101.71798 | 83 ft | 16 kts | 146° |
| 2026-04-30 21:54 | 2.74839 | 101.71863 | 83 ft | 17 kts | 146° |
| 2026-04-30 21:54 | 2.74743 | 101.71928 | 83 ft | 12 kts | 146° |
| 2026-04-30 21:54 | 2.74709 | 101.71993 | 83 ft | 11 kts | 74° |
| 2026-04-30 21:54 | 2.74755 | 101.72069 | 83 ft | 13 kts | 55° |
| 2026-04-30 21:55 | 2.74808 | 101.72147 | 83 ft | 14 kts | 56° |
| 2026-04-30 21:55 | 2.74843 | 101.72194 | 83 ft | 2 kts | 33° |
| 2026-04-30 21:55 | 2.74870 | 101.72186 | 83 ft | 6 kts | 328° |
| 2026-04-30 21:55 | 2.74944 | 101.72137 | 83 ft | 30 kts | 326° |
| 2026-04-30 21:56 | 2.75335 | 101.71876 | 83 ft | 103 kts | 326° |
| 2026-04-30 21:56 | 2.76112 | 101.71355 | 87 ft | 161 kts | 326° |
| 2026-04-30 21:56 | 2.77081 | 101.70712 | 581 ft | 171 kts | 327° |
| 2026-04-30 21:56 | 2.78056 | 101.70061 | 1271 ft | 170 kts | 327° |
| 2026-04-30 21:57 | 2.79035 | 101.69401 | 1986 ft | 171 kts | 327° |
| 2026-04-30 21:57 | 2.80066 | 101.68752 | 2524 ft | 181 kts | 334° |
| 2026-04-30 21:57 | 2.81252 | 101.68224 | 3001 ft | 194 kts | 347° |
| 2026-04-30 21:57 | 2.82612 | 101.67888 | 3466 ft | 210 kts | 346° |
| 2026-04-30 21:58 | 2.84063 | 101.67417 | 3895 ft | 230 kts | 344° |
| 2026-04-30 21:58 | 2.85654 | 101.66874 | 4402 ft | 247 kts | 343° |
| 2026-04-30 21:58 | 2.87329 | 101.66305 | 4915 ft | 265 kts | 341° |
| 2026-04-30 21:58 | 2.89106 | 101.65675 | 5659 ft | 272 kts | 339° |
| 2026-04-30 21:59 | 2.90911 | 101.65189 | 6452 ft | 274 kts | 360° |
| 2026-04-30 21:59 | 2.92758 | 101.65566 | 7291 ft | 272 kts | 25° |
| 2026-04-30 21:59 | 2.94406 | 101.66495 | 8073 ft | 274 kts | 31° |
| 2026-04-30 22:00 | 2.97770 | 101.68442 | 9504 ft | 284 kts | 33° |
| 2026-04-30 22:00 | 3.01236 | 101.70473 | 10756 ft | 299 kts | 33° |
| 2026-04-30 22:00 | 3.03078 | 101.71568 | 11282 ft | 310 kts | 32° |
| 2026-04-30 22:01 | 3.04936 | 101.72643 | 11998 ft | 313 kts | 31° |
| 2026-04-30 22:01 | 3.06838 | 101.73738 | 12728 ft | 316 kts | 32° |
| 2026-04-30 22:01 | 3.08770 | 101.74853 | 13446 ft | 319 kts | 32° |
| 2026-04-30 22:01 | 3.10691 | 101.75967 | 14133 ft | 323 kts | 32° |
| 2026-04-30 22:02 | 3.12646 | 101.77103 | 14823 ft | 325 kts | 32° |
| 2026-04-30 22:02 | 3.14596 | 101.78238 | 15504 ft | 328 kts | 33° |
| 2026-04-30 22:02 | 3.16449 | 101.79567 | 16172 ft | 329 kts | 43° |
| 2026-04-30 22:02 | 3.18032 | 101.81222 | 16853 ft | 330 kts | 53° |
| 2026-04-30 22:03 | 3.19368 | 101.83093 | 17511 ft | 332 kts | 56° |
| 2026-04-30 22:03 | 3.20667 | 101.85021 | 18124 ft | 336 kts | 57° |
| 2026-04-30 22:03 | 3.21971 | 101.86968 | 18694 ft | 340 kts | 57° |
| 2026-04-30 22:03 | 3.23297 | 101.88940 | 19264 ft | 344 kts | 57° |
| 2026-04-30 22:04 | 3.24641 | 101.90933 | 19852 ft | 348 kts | 57° |
| 2026-04-30 22:04 | 3.26002 | 101.92946 | 20419 ft | 351 kts | 57° |
| 2026-04-30 22:04 | 3.28877 | 101.96923 | 21482 ft | 358 kts | 55° |
| 2026-04-30 22:05 | 3.30372 | 101.98937 | 22000 ft | 361 kts | 55° |
| 2026-04-30 22:05 | 3.31881 | 102.00968 | 22502 ft | 364 kts | 55° |
| 2026-04-30 22:05 | 3.33395 | 102.02995 | 22855 ft | 368 kts | 53° |
| 2026-04-30 22:05 | 3.35142 | 102.04891 | 22936 ft | 371 kts | 45° |
| 2026-04-30 22:06 | 3.37150 | 102.06508 | 22933 ft | 373 kts | 37° |
| 2026-04-30 22:06 | 3.41635 | 102.09187 | 22919 ft | 374 kts | 32° |
| 2026-04-30 22:06 | 3.43889 | 102.10455 | 22911 ft | 375 kts | 30° |
| 2026-04-30 22:07 | 3.46223 | 102.11659 | 22904 ft | 375 kts | 29° |
| 2026-04-30 22:07 | 3.48542 | 102.12841 | 22897 ft | 375 kts | 29° |
| 2026-04-30 22:07 | 3.50886 | 102.14035 | 22891 ft | 374 kts | 29° |
| 2026-04-30 22:07 | 3.53223 | 102.15228 | 22887 ft | 375 kts | 29° |
| 2026-04-30 22:08 | 3.55523 | 102.16402 | 22887 ft | 374 kts | 29° |
| 2026-04-30 22:08 | 3.57854 | 102.17594 | 22889 ft | 374 kts | 29° |
| 2026-04-30 22:08 | 3.60178 | 102.18784 | 22885 ft | 374 kts | 29° |
| 2026-04-30 22:08 | 3.62503 | 102.19972 | 22884 ft | 374 kts | 30° |
| 2026-04-30 22:09 | 3.64828 | 102.21167 | 22884 ft | 374 kts | 30° |
| 2026-04-30 22:09 | 3.67128 | 102.22346 | 22887 ft | 374 kts | 30° |
| 2026-04-30 22:09 | 3.69463 | 102.23540 | 22888 ft | 374 kts | 30° |
| 2026-04-30 22:09 | 3.71794 | 102.24734 | 22885 ft | 374 kts | 30° |
| 2026-04-30 22:10 | 3.74104 | 102.25921 | 22885 ft | 374 kts | 30° |
| 2026-04-30 22:10 | 3.76445 | 102.27121 | 22887 ft | 375 kts | 30° |
| 2026-04-30 22:10 | 3.78749 | 102.28297 | 22886 ft | 375 kts | 30° |
| 2026-04-30 22:10 | 3.81075 | 102.29494 | 22886 ft | 374 kts | 30° |
| 2026-04-30 22:11 | 3.85736 | 102.31881 | 22895 ft | 374 kts | 30° |
| 2026-04-30 22:11 | 3.88064 | 102.33079 | 22897 ft | 374 kts | 30° |
| 2026-04-30 22:11 | 3.90391 | 102.34266 | 22901 ft | 374 kts | 30° |
| 2026-04-30 22:12 | 3.92720 | 102.35461 | 22814 ft | 375 kts | 30° |
| 2026-04-30 22:12 | 3.95025 | 102.36647 | 22521 ft | 374 kts | 29° |
| 2026-04-30 22:12 | 3.97345 | 102.37833 | 22202 ft | 372 kts | 30° |
| 2026-04-30 22:12 | 3.99634 | 102.38996 | 21879 ft | 369 kts | 30° |
| 2026-04-30 22:13 | 4.01932 | 102.40176 | 21546 ft | 367 kts | 30° |
| 2026-04-30 22:13 | 4.04192 | 102.41331 | 21212 ft | 365 kts | 30° |
| 2026-04-30 22:13 | 4.06457 | 102.42499 | 20867 ft | 363 kts | 30° |
| 2026-04-30 22:13 | 4.08678 | 102.43642 | 20528 ft | 361 kts | 30° |
| 2026-04-30 22:14 | 4.10925 | 102.44795 | 20190 ft | 359 kts | 29° |
| 2026-04-30 22:14 | 4.13159 | 102.45933 | 19847 ft | 356 kts | 30° |
| 2026-04-30 22:14 | 4.15342 | 102.47057 | 19510 ft | 354 kts | 29° |
| 2026-04-30 22:14 | 4.17542 | 102.48193 | 19177 ft | 352 kts | 28° |
| 2026-04-30 22:15 | 4.19704 | 102.49292 | 18846 ft | 350 kts | 29° |
| 2026-04-30 22:15 | 4.21871 | 102.50398 | 18511 ft | 347 kts | 29° |
| 2026-04-30 22:15 | 4.24026 | 102.51506 | 18181 ft | 345 kts | 30° |
| 2026-04-30 22:15 | 4.26172 | 102.52611 | 17848 ft | 343 kts | 29° |
| 2026-04-30 22:16 | 4.28265 | 102.53688 | 17521 ft | 340 kts | 29° |
| 2026-04-30 22:16 | 4.30387 | 102.54778 | 17190 ft | 338 kts | 29° |
| 2026-04-30 22:17 | 4.36611 | 102.57972 | 16212 ft | 332 kts | 30° |
| 2026-04-30 22:17 | 4.38670 | 102.59029 | 15889 ft | 330 kts | 30° |
| 2026-04-30 22:17 | 4.42726 | 102.61110 | 15261 ft | 326 kts | 30° |
| 2026-04-30 22:18 | 4.44746 | 102.62147 | 14940 ft | 324 kts | 30° |
| 2026-04-30 22:18 | 4.48728 | 102.64189 | 14312 ft | 319 kts | 30° |
| 2026-04-30 22:19 | 4.52686 | 102.66222 | 13675 ft | 316 kts | 30° |
| 2026-04-30 22:19 | 4.54627 | 102.67219 | 13364 ft | 315 kts | 30° |
| 2026-04-30 22:19 | 4.58511 | 102.69214 | 12739 ft | 312 kts | 30° |
| 2026-04-30 22:20 | 4.60451 | 102.70209 | 12425 ft | 311 kts | 30° |
| 2026-04-30 22:20 | 4.64315 | 102.72128 | 11800 ft | 308 kts | 29° |
| 2026-04-30 22:20 | 4.66250 | 102.73080 | 11495 ft | 306 kts | 29° |
| 2026-04-30 22:21 | 4.68166 | 102.74025 | 11192 ft | 304 kts | 29° |
| 2026-04-30 22:21 | 4.70053 | 102.74957 | 10891 ft | 303 kts | 29° |
| 2026-04-30 22:21 | 4.71957 | 102.75899 | 10581 ft | 302 kts | 29° |
| 2026-04-30 22:21 | 4.73826 | 102.76823 | 10277 ft | 300 kts | 29° |
| 2026-04-30 22:22 | 4.75694 | 102.77748 | 9981 ft | 298 kts | 29° |
| 2026-04-30 22:22 | 4.77537 | 102.78660 | 9934 ft | 287 kts | 28° |
| 2026-04-30 22:22 | 4.79291 | 102.79527 | 9833 ft | 279 kts | 29° |
| 2026-04-30 22:22 | 4.81045 | 102.80395 | 9527 ft | 279 kts | 28° |
| 2026-04-30 22:23 | 4.82796 | 102.81261 | 9235 ft | 279 kts | 28° |
| 2026-04-30 22:23 | 4.84507 | 102.82111 | 9068 ft | 272 kts | 28° |
| 2026-04-30 22:23 | 4.86200 | 102.82902 | 9058 ft | 262 kts | 24° |
| 2026-04-30 22:23 | 4.87913 | 102.83503 | 8947 ft | 257 kts | 19° |
| 2026-04-30 22:24 | 4.89649 | 102.83966 | 8613 ft | 261 kts | 17° |
| 2026-04-30 22:24 | 4.91420 | 102.84415 | 8270 ft | 259 kts | 17° |
| 2026-04-30 22:24 | 4.93145 | 102.84848 | 7981 ft | 249 kts | 17° |
| 2026-04-30 22:24 | 4.94815 | 102.85268 | 7723 ft | 243 kts | 17° |
| 2026-04-30 22:25 | 4.96436 | 102.85680 | 7456 ft | 240 kts | 17° |
| 2026-04-30 22:25 | 4.98062 | 102.86093 | 7191 ft | 236 kts | 17° |
| 2026-04-30 22:25 | 4.99636 | 102.86493 | 6934 ft | 232 kts | 17° |
| 2026-04-30 22:25 | 5.01209 | 102.86896 | 6686 ft | 229 kts | 16° |
| 2026-04-30 22:26 | 5.04301 | 102.87677 | 6181 ft | 228 kts | 17° |
| 2026-04-30 22:26 | 5.05833 | 102.88071 | 5933 ft | 227 kts | 16° |
| 2026-04-30 22:26 | 5.07390 | 102.88468 | 5683 ft | 229 kts | 16° |
| 2026-04-30 22:27 | 5.08950 | 102.88799 | 5426 ft | 232 kts | 13° |
| 2026-04-30 22:27 | 5.10556 | 102.89109 | 5148 ft | 233 kts | 13° |
| 2026-04-30 22:27 | 5.13700 | 102.89716 | 4642 ft | 226 kts | 13° |
| 2026-04-30 22:28 | 5.16747 | 102.90358 | 4250 ft | 219 kts | 20° |
| 2026-04-30 22:28 | 5.18139 | 102.90975 | 4053 ft | 217 kts | 32° |
| 2026-04-30 22:29 | 5.21478 | 102.93870 | 3457 ft | 202 kts | 45° |
| 2026-04-30 22:29 | 5.22461 | 102.94846 | 3294 ft | 194 kts | 45° |
| 2026-04-30 22:30 | 5.26047 | 102.98375 | 2871 ft | 163 kts | 45° |
| 2026-04-30 22:31 | 5.28489 | 103.00771 | 2254 ft | 163 kts | 45° |
| 2026-04-30 22:32 | 5.30870 | 103.03100 | 1637 ft | 151 kts | 45° |
| 2026-04-30 22:32 | 5.32330 | 103.04524 | 1256 ft | 143 kts | 45° |
| 2026-04-30 22:33 | 5.34481 | 103.06627 | 720 ft | 143 kts | 44° |
| 2026-04-30 22:33 | 5.35903 | 103.08023 | 343 ft | 142 kts | 45° |
| 2026-04-30 22:34 | 5.37889 | 103.09961 | 39 ft | 87 kts | 45° |
| 2026-04-30 22:35 | 5.38579 | 103.10638 | 36 ft | 63 kts | 45° |
| 2026-04-30 22:36 | 5.39210 | 103.11206 | 21 ft | 7 kts | 95° |
| 2026-04-30 22:36 | 5.39179 | 103.11217 | 21 ft | 6 kts | 203° |
| 2026-04-30 22:37 | 5.39072 | 103.11119 | 25 ft | 8 kts | 224° |
| 2026-04-30 22:37 | 5.39031 | 103.11079 | 26 ft | 7 kts | 224° |
| 2026-04-30 22:37 | 5.38963 | 103.11014 | 30 ft | 6 kts | 224° |
| 2026-04-30 22:38 | 5.38886 | 103.10938 | 31 ft | 8 kts | 224° |
| 2026-04-30 22:38 | 5.38794 | 103.10848 | 34 ft | 9 kts | 225° |
| 2026-04-30 22:39 | 5.38749 | 103.10803 | 35 ft | 8 kts | 224° |
| 2026-04-30 22:39 | 5.38592 | 103.10651 | 36 ft | 12 kts | 224° |
| 2026-04-30 22:40 | 5.38387 | 103.10449 | 39 ft | 13 kts | 224° |
| 2026-04-30 22:41 | 5.38199 | 103.10333 | 39 ft | 11 kts | 150° |
| 2026-04-30 22:41 | 5.38084 | 103.10403 | 41 ft | 9 kts | 200° |
| 2026-04-30 22:42 | 5.37955 | 103.10453 | 43 ft | 0 kts | 134° |